createdAt,value
2019-01-05T00:01:22.232Z,6.63
2019-01-05T00:03:56.205Z,8.63
2019-01-05T00:06:39.505Z,4.60
2019-01-05T00:09:13.705Z,3.93
2019-01-05T00:11:48.178Z,6.10
2019-01-05T00:15:30.476Z,7.60
2019-01-05T00:18:04.876Z,5.07
2019-01-05T00:20:44.769Z,2.90
2019-01-05T00:23:33.394Z,3.40
2019-01-05T00:26:07.001Z,2.73
2019-01-05T00:30:42.244Z,4.53
2019-01-05T00:33:16.253Z,3.63
2019-01-05T00:36:13.402Z,2.37
2019-01-05T00:38:50.180Z,2.30
2019-01-05T00:41:23.756Z,1.63
2019-01-05T00:44:00.668Z,5.27
2019-01-05T00:46:34.264Z,6.93
2019-01-05T00:49:08.202Z,2.43
2019-01-05T00:53:44.336Z,2.00
2019-01-05T00:56:17.927Z,3.33
2019-01-05T00:58:51.604Z,2.50
2019-01-05T01:03:29.149Z,4.50
2019-01-05T01:06:05.705Z,5.93
2019-01-05T01:08:39.688Z,4.30
2019-01-05T01:11:22.155Z,11.17
2019-01-05T01:13:57.962Z,4.97
2019-01-05T01:16:31.732Z,3.13
2019-01-05T01:21:12.316Z,2.97
2019-01-05T01:24:06.340Z,6.13
2019-01-05T01:26:45.895Z,2.67
2019-01-05T01:29:50.562Z,7.33
2019-01-05T01:32:28.295Z,8.53
2019-01-05T01:35:31.738Z,4.97
2019-01-05T01:39:46.861Z,3.33
2019-01-05T01:42:22.042Z,7.20
2019-01-05T01:47:01.202Z,7.00
2019-01-05T01:49:35.683Z,6.40
2019-01-05T01:52:09.777Z,5.97
2019-01-05T01:54:53.155Z,3.70
2019-01-05T01:59:30.936Z,6.00
2019-01-05T02:02:10.583Z,5.07
2019-01-05T02:04:44.455Z,4.33
2019-01-05T02:07:17.265Z,4.30
2019-01-05T02:11:56.673Z,7.87
2019-01-05T02:14:36.040Z,7.00
2019-01-05T02:17:13.131Z,6.20
2019-01-05T02:20:00.968Z,7.80
2019-01-05T02:22:48.598Z,9.63
2019-01-05T02:25:51.042Z,2.50
2019-01-05T02:29:46.111Z,6.33
2019-01-05T02:32:34.311Z,9.37
2019-01-05T02:35:23.592Z,12.50
2019-01-05T02:38:15.670Z,6.53
2019-01-05T02:41:12.159Z,7.50
2019-01-05T02:45:05.021Z,4.90
2019-01-05T02:49:13.141Z,10.67
2019-01-05T02:53:07.632Z,6.63
2019-01-05T02:58:57.368Z,6.67
2019-01-05T03:03:57.439Z,9.93
2019-01-05T03:07:02.800Z,4.50
2019-01-05T03:10:22.581Z,6.17
2019-01-05T03:13:07.550Z,2.53
2019-01-05T03:16:29.710Z,16.00
2019-01-05T03:19:34.339Z,6.50
2019-01-05T03:24:26.837Z,5.87
2019-01-05T03:29:14.002Z,12.13
2019-01-05T03:31:58.647Z,8.23
2019-01-05T03:36:45.592Z,5.07
2019-01-05T03:39:43.177Z,4.03
2019-01-05T03:44:35.556Z,5.37
2019-01-05T03:47:19.409Z,2.07
2019-01-05T03:52:12.166Z,7.97
2019-01-05T03:57:03.265Z,13.20
2019-01-05T03:59:55.313Z,5.70
2019-01-05T04:02:48.463Z,5.13
2019-01-05T04:07:45.990Z,7.73
2019-01-05T04:14:40.853Z,4.53
2019-01-05T04:17:24.746Z,8.60
2019-01-05T04:20:10.335Z,7.40
2019-01-05T04:25:58.389Z,6.17
2019-01-05T04:28:43.048Z,6.90
2019-01-05T04:31:29.763Z,4.63
2019-01-05T04:34:16.140Z,4.27
2019-01-05T04:40:09.798Z,18.70
2019-01-05T04:45:08.740Z,8.07
2019-01-05T04:47:59.347Z,4.97
2019-01-05T04:50:52.299Z,13.90
2019-01-05T04:55:48.324Z,14.17
2019-01-05T04:58:37.551Z,12.20
2019-01-05T05:01:23.028Z,11.73
2019-01-05T05:04:07.925Z,12.53
2019-01-05T05:06:55.778Z,7.90
2019-01-05T05:10:47.714Z,6.50
2019-01-05T05:13:36.429Z,6.53
2019-01-05T05:16:51.607Z,10.50
2019-01-05T05:19:44.063Z,10.67
2019-01-05T05:26:39.960Z,4.37
2019-01-05T05:29:32.748Z,8.37
2019-01-05T05:33:25.748Z,15.53
2019-01-05T05:36:42.128Z,6.57
2019-01-05T05:39:30.643Z,3.20
2019-01-05T05:44:31.716Z,15.73
2019-01-05T05:47:31.708Z,12.53
2019-01-05T05:50:22.270Z,10.93
2019-01-05T05:53:14.043Z,17.60
2019-01-05T05:55:58.756Z,13.27
2019-01-05T06:00:46.976Z,9.73
2019-01-05T06:03:40.565Z,5.70
2019-01-05T06:06:31.207Z,4.43
2019-01-05T06:09:17.780Z,11.43
2019-01-05T06:14:12.903Z,18.53
2019-01-05T06:17:02.088Z,8.33
2019-01-05T06:19:49.171Z,18.03
2019-01-05T06:24:37.132Z,4.20
2019-01-05T06:29:30.488Z,17.50
2019-01-05T06:32:17.787Z,8.53
2019-01-05T06:35:02.320Z,12.17
2019-01-05T06:38:11.216Z,8.17
2019-01-05T06:46:12.759Z,12.03
2019-01-05T06:50:02.381Z,8.53
2019-01-05T06:56:56.109Z,9.40
2019-01-05T07:03:46.030Z,13.63
2019-01-05T07:07:31.164Z,11.60
2019-01-05T07:10:18.899Z,12.23
2019-01-05T07:13:23.353Z,7.30
2019-01-05T07:16:41.051Z,8.97
2019-01-05T07:19:50.283Z,10.50
2019-01-05T07:24:45.717Z,7.23
2019-01-05T07:27:31.089Z,2.83
2019-01-05T07:30:15.990Z,10.03
2019-01-05T07:33:02.593Z,10.87
2019-01-05T07:35:46.905Z,7.67
2019-01-05T07:41:07.316Z,10.00
2019-01-05T07:45:57.409Z,7.80
2019-01-05T07:54:49.920Z,10.47
2019-01-05T08:01:02.338Z,12.47
2019-01-05T08:03:57.116Z,16.27
2019-01-05T08:06:50.074Z,13.87
2019-01-05T08:11:40.376Z,3.53
2019-01-05T08:14:42.466Z,12.87
2019-01-05T08:20:00.650Z,7.30
2019-01-05T08:23:03.009Z,6.43
2019-01-05T08:25:59.774Z,8.13
2019-01-05T08:29:25.322Z,4.33
2019-01-05T08:32:11.071Z,6.80
2019-01-05T08:35:26.461Z,11.37
2019-01-05T08:40:12.370Z,13.53
2019-01-05T08:46:09.371Z,9.37
2019-01-05T08:49:02.699Z,5.40
2019-01-05T08:52:09.853Z,12.43
2019-01-05T08:55:05.041Z,3.77
2019-01-05T09:01:06.345Z,11.47
2019-01-05T09:06:00.757Z,5.87
2019-01-05T09:08:48.728Z,11.20
2019-01-05T09:11:32.042Z,8.40
2019-01-05T09:14:21.431Z,10.67
2019-01-05T09:17:28.465Z,6.13
2019-01-05T09:22:24.039Z,6.63
2019-01-05T09:25:33.229Z,5.67
2019-01-05T09:28:41.774Z,7.60
2019-01-05T09:31:26.820Z,5.57
2019-01-05T09:36:17.956Z,3.30
2019-01-05T09:39:17.344Z,13.37
2019-01-05T09:42:21.199Z,8.73
2019-01-05T09:47:09.960Z,4.70
2019-01-05T09:49:54.880Z,3.80
2019-01-05T09:53:49.940Z,4.50
2019-01-05T09:56:42.582Z,7.23
2019-01-05T09:59:34.764Z,6.83
2019-01-05T10:05:01.475Z,4.60
2019-01-05T10:08:56.320Z,8.53
2019-01-05T10:13:44.857Z,4.47
2019-01-05T10:17:43.282Z,6.07
2019-01-05T10:22:31.327Z,9.07
2019-01-05T10:27:17.716Z,8.97
2019-01-05T10:30:26.425Z,4.33
2019-01-05T10:33:41.619Z,6.60
2019-01-05T10:37:41.715Z,5.50
2019-01-05T10:40:54.019Z,8.23
2019-01-05T10:44:43.660Z,2.50
2019-01-05T10:47:28.201Z,4.10
2019-01-05T10:50:16.215Z,5.67
2019-01-05T10:55:12.044Z,5.20
2019-01-05T10:58:57.626Z,5.20
2019-01-05T11:03:43.830Z,4.07
2019-01-05T11:08:41.008Z,4.73
2019-01-05T11:13:45.327Z,5.10
2019-01-05T11:18:32.295Z,3.97
2019-01-05T11:21:22.309Z,5.43
2019-01-05T11:24:06.186Z,4.10
2019-01-05T11:26:53.777Z,3.63
2019-01-05T11:30:00.945Z,8.83
2019-01-05T11:32:58.863Z,7.07
2019-01-05T11:35:52.013Z,7.37
2019-01-05T11:40:43.417Z,7.07
2019-01-05T11:46:06.539Z,2.27
2019-01-05T11:49:13.777Z,5.90
2019-01-05T11:52:02.724Z,2.33
2019-01-05T11:55:20.107Z,3.90
2019-01-05T11:58:16.442Z,3.33
2019-01-05T12:01:04.591Z,2.60
2019-01-05T12:05:55.710Z,5.47
2019-01-05T12:10:47.807Z,1.70
2019-01-05T12:15:38.604Z,2.23
2019-01-05T12:20:27.576Z,7.10
2019-01-05T12:24:54.181Z,5.47
2019-01-05T12:27:42.265Z,5.20
2019-01-05T12:31:32.637Z,4.87
2019-01-05T12:34:17.596Z,3.13
2019-01-05T12:38:05.220Z,5.20
2019-01-05T12:41:08.792Z,5.10
2019-01-05T12:44:23.224Z,6.60
2019-01-05T12:49:14.494Z,4.80
2019-01-05T12:52:34.285Z,5.07
2019-01-05T12:56:16.394Z,3.27
2019-01-05T12:59:35.721Z,5.33
2019-01-05T13:02:20.214Z,3.23
2019-01-05T13:08:18.650Z,5.93
2019-01-05T13:11:08.097Z,6.57
2019-01-05T13:13:51.010Z,10.17
2019-01-05T13:17:44.729Z,4.93
2019-01-05T13:20:33.134Z,4.57
2019-01-05T13:23:21.482Z,1.93
2019-01-05T13:26:18.124Z,3.10
2019-01-05T13:29:16.698Z,5.90
2019-01-05T13:32:04.646Z,4.03
2019-01-05T13:34:57.558Z,4.37
2019-01-05T13:38:22.496Z,6.73
2019-01-05T13:41:08.324Z,10.93
2019-01-05T13:43:57.488Z,5.67
2019-01-05T13:47:16.147Z,9.23
2019-01-05T13:50:02.161Z,8.23
2019-01-05T13:55:04.743Z,8.80
2019-01-05T13:57:38.305Z,9.10
2019-01-05T14:00:14.243Z,6.70
2019-01-05T14:02:50.871Z,6.90
2019-01-05T14:05:57.851Z,10.93
2019-01-05T14:10:37.242Z,6.30
2019-01-05T14:13:13.949Z,7.53
2019-01-05T14:17:51.162Z,15.80
2019-01-05T14:22:26.565Z,10.53
2019-01-05T14:25:02.024Z,6.93
2019-01-05T14:27:40.638Z,10.23
2019-01-05T14:32:15.809Z,13.10
2019-01-05T14:35:47.646Z,10.50
2019-01-05T14:38:25.337Z,10.07
2019-01-05T14:41:30.272Z,13.17
2019-01-05T14:44:04.099Z,24.77
2019-01-05T14:46:38.393Z,31.30
2019-01-05T14:49:12.194Z,40.43
2019-01-05T14:53:48.810Z,11.67
2019-01-05T14:56:21.410Z,8.83
2019-01-05T14:58:57.516Z,10.80
2019-01-05T15:01:31.281Z,10.50
2019-01-05T15:04:05.637Z,15.23
2019-01-05T15:06:46.198Z,16.67
2019-01-05T15:09:29.886Z,8.23
2019-01-05T15:12:03.642Z,22.77
2019-01-05T15:15:39.625Z,6.73
2019-01-05T15:18:13.536Z,33.73
2019-01-05T15:20:52.187Z,41.93
2019-01-05T15:23:56.873Z,37.13
2019-01-05T15:28:35.282Z,17.77
2019-01-05T15:31:09.100Z,25.47
2019-01-05T15:34:49.451Z,10.27
2019-01-05T15:37:23.974Z,14.57
2019-01-05T15:40:05.869Z,15.27
2019-01-05T15:42:39.531Z,10.10
2019-01-05T15:45:19.215Z,14.93
2019-01-05T15:49:56.348Z,21.33
2019-01-05T15:52:35.819Z,11.43
2019-01-05T15:57:11.609Z,19.67
2019-01-05T15:59:47.667Z,19.80
2019-01-05T16:02:22.194Z,13.60
2019-01-05T16:04:55.858Z,16.90
2019-01-05T16:07:30.270Z,14.17
2019-01-05T16:12:05.874Z,9.83
2019-01-05T16:14:43.481Z,15.87
2019-01-05T16:17:22.045Z,8.23
2019-01-05T16:20:00.484Z,14.50
2019-01-05T16:24:35.733Z,13.37
2019-01-05T16:28:09.519Z,16.80
2019-01-05T16:30:43.156Z,10.63
2019-01-05T16:33:20.749Z,13.93
2019-01-05T16:38:00.955Z,13.50
2019-01-05T16:40:34.676Z,14.37
2019-01-05T16:43:16.715Z,27.50
2019-01-05T16:45:50.198Z,20.03
2019-01-05T16:48:24.120Z,13.97
2019-01-05T16:50:58.929Z,11.77
2019-01-05T16:53:31.293Z,9.70
2019-01-05T16:56:05.062Z,20.20
2019-01-05T16:58:56.731Z,18.83
2019-01-05T17:01:30.447Z,15.03
2019-01-05T17:04:04.562Z,17.77
2019-01-05T17:08:45.133Z,15.27
2019-01-05T17:11:34.680Z,15.10
2019-01-05T17:14:08.518Z,25.13
2019-01-05T17:16:42.425Z,19.73
2019-01-05T17:19:16.958Z,14.43
2019-01-05T17:21:54.699Z,14.27
2019-01-05T17:24:30.263Z,15.23
2019-01-05T17:27:04.347Z,20.37
2019-01-05T17:29:41.795Z,22.83
2019-01-05T17:32:18.430Z,19.57
2019-01-05T17:34:56.055Z,14.97
2019-01-05T17:37:59.795Z,17.57
2019-01-05T17:40:33.361Z,22.57
2019-01-05T17:43:23.040Z,14.50
2019-01-05T17:45:56.753Z,25.20
2019-01-05T17:50:38.260Z,14.07
2019-01-05T17:53:11.911Z,10.07
2019-01-05T17:56:17.709Z,8.67
2019-01-05T18:00:55.818Z,19.33
2019-01-05T18:05:36.354Z,9.97
2019-01-05T18:09:10.397Z,16.87
2019-01-05T18:12:50.257Z,10.27
2019-01-05T18:15:23.913Z,16.23
2019-01-05T18:17:57.508Z,13.90
2019-01-05T18:20:34.127Z,16.53
2019-01-05T18:25:09.543Z,16.67
2019-01-05T18:27:44.211Z,10.97
2019-01-05T18:30:53.076Z,11.33
2019-01-05T18:33:28.606Z,11.67
2019-01-05T18:36:13.426Z,13.30
2019-01-05T18:38:47.147Z,15.67
2019-01-05T18:41:20.950Z,11.93
2019-01-05T18:43:57.438Z,14.17
2019-01-05T18:46:32.239Z,12.57
2019-01-05T18:49:08.628Z,12.43
2019-01-05T18:51:45.594Z,9.47
2019-01-05T18:54:19.253Z,12.07
2019-01-05T18:57:23.939Z,10.63
2019-01-05T18:59:59.547Z,16.63
2019-01-05T19:02:34.050Z,11.10
2019-01-05T19:07:15.177Z,15.33
2019-01-05T19:11:52.831Z,14.53
2019-01-05T19:14:26.379Z,15.87
2019-01-05T19:17:03.942Z,17.43
2019-01-05T19:21:39.231Z,17.60
2019-01-05T19:26:17.656Z,12.10
2019-01-05T19:28:51.587Z,19.00
2019-01-05T19:31:25.626Z,23.63
2019-01-05T19:35:06.653Z,21.03
2019-01-05T19:38:00.529Z,29.10
2019-01-05T19:40:34.319Z,19.83
2019-01-05T19:45:12.146Z,29.83
2019-01-05T19:48:51.134Z,12.23
2019-01-05T19:51:24.672Z,19.50
2019-01-05T19:54:00.219Z,19.37
2019-01-05T19:58:36.709Z,21.10
2019-01-05T20:03:15.945Z,19.07
2019-01-05T20:05:54.731Z,25.30
2019-01-05T20:08:45.216Z,31.97
2019-01-05T20:13:22.663Z,31.80
2019-01-05T20:17:57.917Z,22.80
2019-01-05T20:22:34.396Z,20.80
2019-01-05T20:25:08.026Z,16.33
2019-01-05T20:27:42.211Z,16.33
2019-01-05T20:30:15.827Z,15.37
2019-01-05T20:34:54.298Z,22.60
2019-01-05T20:37:27.120Z,26.17
2019-01-05T20:42:06.670Z,20.67
2019-01-05T20:46:42.832Z,14.90
2019-01-05T20:49:16.904Z,15.20
2019-01-05T20:51:50.658Z,27.53
2019-01-05T20:55:28.585Z,20.23
2019-01-05T20:58:02.079Z,23.77
2019-01-05T21:00:36.583Z,19.37
2019-01-05T21:03:11.106Z,23.00
2019-01-05T21:05:44.830Z,29.87
2019-01-05T21:09:20.975Z,23.97
2019-01-05T21:11:56.509Z,21.60
2019-01-05T21:14:30.206Z,20.77
2019-01-05T21:17:35.975Z,22.27
2019-01-05T21:20:09.718Z,18.33
2019-01-05T21:24:46.130Z,16.10
2019-01-05T21:27:33.746Z,21.97
2019-01-05T21:30:21.570Z,25.73
2019-01-05T21:32:55.931Z,20.70
2019-01-05T21:35:29.749Z,20.70
2019-01-05T21:38:02.322Z,14.40
2019-01-05T21:40:36.123Z,24.33
2019-01-05T21:43:11.565Z,22.10
2019-01-05T21:45:45.169Z,20.17
2019-01-05T21:48:18.865Z,24.80
2019-01-05T21:50:52.674Z,27.33
2019-01-05T21:53:35.206Z,22.00
2019-01-05T21:56:09.835Z,22.83
2019-01-05T22:01:08.577Z,17.80
2019-01-05T22:03:42.452Z,19.47
2019-01-05T22:06:21.153Z,22.70
2019-01-05T22:09:58.182Z,20.27
2019-01-05T22:12:40.216Z,24.30
2019-01-05T22:15:13.810Z,17.63
2019-01-05T22:18:02.211Z,16.67
2019-01-05T22:20:36.276Z,24.00
2019-01-05T22:23:11.830Z,21.20
2019-01-05T22:25:45.738Z,19.03
2019-01-05T22:28:27.746Z,20.07
2019-01-05T22:31:29.996Z,14.60
2019-01-05T22:34:03.622Z,16.27
2019-01-05T22:36:39.349Z,23.37
2019-01-05T22:39:12.947Z,23.97
2019-01-05T22:41:46.856Z,14.47
2019-01-05T22:44:40.801Z,21.50
2019-01-05T22:47:19.512Z,16.43
2019-01-05T22:49:52.904Z,16.80
2019-01-05T22:52:26.660Z,24.27
2019-01-05T22:55:15.201Z,19.40
2019-01-05T22:57:55.008Z,21.40
2019-01-05T23:00:28.751Z,20.13
2019-01-05T23:03:02.472Z,25.17
2019-01-05T23:05:39.022Z,24.80
2019-01-05T23:08:13.235Z,30.90
2019-01-05T23:11:22.375Z,31.43
2019-01-05T23:13:55.459Z,24.37
2019-01-05T23:16:28.920Z,14.87
2019-01-05T23:19:01.902Z,32.07
2019-01-05T23:21:35.517Z,19.43
2019-01-05T23:24:10.280Z,27.87
2019-01-05T23:26:49.810Z,28.87
2019-01-05T23:29:23.819Z,21.50
2019-01-05T23:31:57.324Z,27.67
2019-01-05T23:34:35.316Z,18.07
2019-01-05T23:37:08.895Z,27.13
2019-01-05T23:41:45.315Z,19.27
2019-01-05T23:44:35.704Z,25.70
2019-01-05T23:47:08.875Z,20.57
2019-01-05T23:51:48.984Z,17.60
2019-01-05T23:54:26.531Z,18.60
2019-01-05T23:57:00.162Z,27.27
2019-01-05T23:59:33.801Z,22.30
